createdAt,value
2023-02-04T00:00:29.702Z,101106.53
2023-02-04T00:02:57.508Z,101105.47
2023-02-04T00:05:25.177Z,101107.66
2023-02-04T00:07:52.808Z,101123.75
2023-02-04T00:10:20.641Z,101127.94
2023-02-04T00:12:48.224Z,101134.00
2023-02-04T00:15:17.443Z,101120.78
2023-02-04T00:17:45.035Z,101108.47
2023-02-04T00:20:13.165Z,101103.34
2023-02-04T00:22:40.743Z,101103.47
2023-02-04T00:25:09.176Z,101119.13
2023-02-04T00:27:36.777Z,101111.84
2023-02-04T00:30:04.831Z,101117.13
2023-02-04T00:32:34.138Z,101132.34
2023-02-04T00:35:04.633Z,101114.00
2023-02-04T00:37:32.873Z,101126.97
2023-02-04T00:40:00.496Z,101138.00
2023-02-04T00:42:28.140Z,101135.59
2023-02-04T00:44:55.811Z,101149.88
2023-02-04T00:47:23.470Z,101152.03
2023-02-04T00:49:52.464Z,101149.13
2023-02-04T00:52:20.112Z,101152.03
2023-02-04T00:54:47.770Z,101163.41
2023-02-04T00:57:15.694Z,101165.94
2023-02-04T00:59:43.264Z,101168.59
2023-02-04T01:02:10.847Z,101166.06
2023-02-04T01:04:38.392Z,101171.69
2023-02-04T01:07:07.379Z,101178.28
2023-02-04T01:09:34.966Z,101175.50
2023-02-04T01:12:02.558Z,101167.59
2023-02-04T01:14:30.404Z,101157.03
2023-02-04T01:16:58.080Z,101157.63
2023-02-04T01:19:25.729Z,101161.63
2023-02-04T01:21:53.344Z,101167.50
2023-02-04T01:24:22.269Z,101172.16
2023-02-04T01:26:49.844Z,101181.16
2023-02-04T01:29:17.454Z,101186.19
2023-02-04T01:31:45.262Z,101184.63
2023-02-04T01:34:12.812Z,101179.25
2023-02-04T01:36:40.344Z,101191.81
2023-02-04T01:39:07.917Z,101188.22
2023-02-04T01:41:36.895Z,101201.31
2023-02-04T01:44:04.568Z,101198.78
2023-02-04T01:46:34.292Z,101193.38
2023-02-04T01:49:02.319Z,101206.06
2023-02-04T01:51:32.018Z,101209.63
2023-02-04T01:54:00.658Z,101210.97
2023-02-04T01:56:31.166Z,101216.16
2023-02-04T01:59:00.178Z,101212.94
2023-02-04T02:01:36.796Z,101223.94
2023-02-04T02:04:05.365Z,101222.88
2023-02-04T02:06:33.278Z,101232.09
2023-02-04T02:09:01.034Z,101232.81
2023-02-04T02:11:29.504Z,101229.53
2023-02-04T02:13:57.212Z,101230.13
2023-02-04T02:16:26.224Z,101233.28
2023-02-04T02:18:54.626Z,101229.44
2023-02-04T02:21:33.163Z,101233.41
2023-02-04T02:24:19.578Z,101237.19
2023-02-04T02:26:47.196Z,101246.25
2023-02-04T02:29:14.806Z,101244.91
2023-02-04T02:31:42.588Z,101255.44
2023-02-04T02:34:10.274Z,101256.69
2023-02-04T02:36:38.074Z,101256.41
2023-02-04T02:39:07.092Z,101266.94
2023-02-04T02:41:35.195Z,101264.69
2023-02-04T02:44:03.322Z,101271.34
2023-02-04T02:46:30.923Z,101262.69
2023-02-04T02:48:58.653Z,101264.94
2023-02-04T02:51:26.260Z,101269.38
2023-02-04T02:53:54.410Z,101269.59
2023-02-04T02:56:23.408Z,101270.47
2023-02-04T02:58:51.082Z,101260.34
2023-02-04T03:01:19.033Z,101260.84
2023-02-04T03:03:50.382Z,101258.66
2023-02-04T03:06:21.356Z,101254.03
2023-02-04T03:08:51.555Z,101259.22
2023-02-04T03:11:19.247Z,101261.22
2023-02-04T03:13:48.365Z,101261.53
2023-02-04T03:16:16.083Z,101269.31
2023-02-04T03:18:43.787Z,101269.09
2023-02-04T03:21:14.316Z,101269.94
2023-02-04T03:23:42.096Z,101286.38
2023-02-04T03:26:09.708Z,101284.03
2023-02-04T03:28:41.336Z,101293.31
2023-02-04T03:31:10.501Z,101297.00
2023-02-04T03:33:38.062Z,101300.47
2023-02-04T03:36:08.417Z,101310.06
2023-02-04T03:38:36.076Z,101300.69
2023-02-04T03:41:03.844Z,101298.78
2023-02-04T03:43:33.737Z,101297.00
2023-02-04T03:46:01.865Z,101303.63
2023-02-04T03:48:30.832Z,101311.63
2023-02-04T03:50:58.407Z,101315.22
2023-02-04T03:53:26.172Z,101315.53
2023-02-04T03:55:53.738Z,101317.22
2023-02-04T03:58:21.931Z,101319.75
2023-02-04T04:00:50.091Z,101317.97
2023-02-04T04:03:17.695Z,101313.25
2023-02-04T04:05:46.587Z,101306.16
2023-02-04T04:08:14.139Z,101297.94
2023-02-04T04:10:42.072Z,101299.31
2023-02-04T04:13:09.698Z,101303.63
2023-02-04T04:15:37.245Z,101305.44
2023-02-04T04:18:05.319Z,101309.03
2023-02-04T04:20:33.183Z,101310.59
2023-02-04T04:23:02.193Z,101323.13
2023-02-04T04:25:29.710Z,101323.66
2023-02-04T04:27:57.256Z,101319.44
2023-02-04T04:30:24.886Z,101307.66
2023-02-04T04:32:52.431Z,101299.34
2023-02-04T04:35:20.093Z,101308.84
2023-02-04T04:37:47.710Z,101309.25
2023-02-04T04:40:17.119Z,101310.72
2023-02-04T04:42:45.635Z,101315.34
2023-02-04T04:45:14.345Z,101329.34
2023-02-04T04:47:41.945Z,101337.53
2023-02-04T04:50:10.310Z,101335.34
2023-02-04T04:52:38.013Z,101341.53
2023-02-04T04:55:06.592Z,101343.31
2023-02-04T04:57:35.579Z,101334.50
2023-02-04T05:00:03.189Z,101331.00
2023-02-04T05:02:30.877Z,101337.63
2023-02-04T05:04:58.761Z,101339.47
2023-02-04T05:07:26.391Z,101333.44
2023-02-04T05:09:53.943Z,101346.72
2023-02-04T05:12:21.553Z,101347.13
2023-02-04T05:14:50.447Z,101347.22
2023-02-04T05:17:18.166Z,101332.50
2023-02-04T05:19:45.714Z,101332.81
2023-02-04T05:22:13.369Z,101340.16
2023-02-04T05:24:40.948Z,101339.66
2023-02-04T05:27:08.471Z,101342.59
2023-02-04T05:29:36.014Z,101352.91
2023-02-04T05:32:05.226Z,101358.59
2023-02-04T05:34:32.827Z,101356.06
2023-02-04T05:37:00.364Z,101363.00
2023-02-04T05:39:29.239Z,101368.09
2023-02-04T05:41:56.753Z,101370.91
2023-02-04T05:44:25.794Z,101365.34
2023-02-04T05:46:54.243Z,101372.06
2023-02-04T05:49:23.793Z,101378.19
2023-02-04T05:51:51.389Z,101380.28
2023-02-04T05:54:20.518Z,101381.66
2023-02-04T05:56:48.765Z,101384.91
2023-02-04T05:59:16.307Z,101382.19
2023-02-04T06:01:43.921Z,101385.44
2023-02-04T06:04:11.532Z,101399.13
2023-02-04T06:06:40.508Z,101400.06
2023-02-04T06:09:08.086Z,101406.91
2023-02-04T06:11:35.668Z,101423.53
2023-02-04T06:14:03.668Z,101416.56
2023-02-04T06:16:31.333Z,101422.34
2023-02-04T06:18:58.932Z,101421.28
2023-02-04T06:21:26.525Z,101432.63
2023-02-04T06:23:55.520Z,101429.59
2023-02-04T06:26:23.072Z,101437.81
2023-02-04T06:28:50.624Z,101448.41
2023-02-04T06:31:18.232Z,101442.97
2023-02-04T06:33:46.309Z,101443.16
2023-02-04T06:36:14.006Z,101438.66
2023-02-04T06:38:41.675Z,101441.59
2023-02-04T06:41:10.601Z,101435.97
2023-02-04T06:43:38.137Z,101451.00
2023-02-04T06:46:06.098Z,101449.88
2023-02-04T06:48:33.680Z,101444.22
2023-02-04T06:51:01.254Z,101442.09
2023-02-04T06:53:28.990Z,101450.59
2023-02-04T06:55:56.534Z,101441.50
2023-02-04T06:58:25.494Z,101452.84
2023-02-04T07:00:53.136Z,101460.00
2023-02-04T07:03:20.734Z,101464.59
2023-02-04T07:05:48.313Z,101465.75
2023-02-04T07:08:15.859Z,101467.13
2023-02-04T07:10:43.473Z,101481.44
2023-02-04T07:13:11.110Z,101479.09
2023-02-04T07:15:40.041Z,101476.38
2023-02-04T07:18:07.703Z,101487.63
2023-02-04T07:20:35.607Z,101486.88
2023-02-04T07:23:03.375Z,101491.75
2023-02-04T07:25:30.896Z,101481.00
2023-02-04T07:27:59.356Z,101481.84
2023-02-04T07:30:27.083Z,101494.06
2023-02-04T07:32:56.060Z,101491.69
2023-02-04T07:35:24.171Z,101504.06
2023-02-04T07:37:51.859Z,101512.06
2023-02-04T07:40:19.699Z,101505.97
2023-02-04T07:42:47.360Z,101508.59
2023-02-04T07:45:15.276Z,101515.31
2023-02-04T07:47:42.901Z,101511.75
2023-02-04T07:50:11.962Z,101517.47
2023-02-04T07:52:39.676Z,101518.63
2023-02-04T07:55:08.110Z,101526.75
2023-02-04T07:57:36.091Z,101533.78
2023-02-04T08:00:03.678Z,101542.13
2023-02-04T08:02:31.256Z,101545.91
2023-02-04T08:04:58.851Z,101543.59
2023-02-04T08:07:27.755Z,101541.06
2023-02-04T08:09:55.307Z,101544.75
2023-02-04T08:12:22.938Z,101543.16
2023-02-04T08:14:50.527Z,101541.50
2023-02-04T08:17:18.107Z,101553.47
2023-02-04T08:19:45.708Z,101548.41
2023-02-04T08:22:13.298Z,101555.38
2023-02-04T08:24:42.245Z,101572.56
2023-02-04T08:27:10.558Z,101569.91
2023-02-04T08:29:38.693Z,101571.78
2023-02-04T08:32:07.426Z,101574.75
2023-02-04T08:34:35.115Z,101573.09
2023-02-04T08:37:02.755Z,101573.41
2023-02-04T08:39:30.660Z,101571.84
2023-02-04T08:41:59.882Z,101578.78
2023-02-04T08:44:27.455Z,101579.81
2023-02-04T08:46:55.104Z,101586.28
2023-02-04T08:49:22.966Z,101588.72
2023-02-04T08:51:50.580Z,101595.56
2023-02-04T08:54:18.170Z,101584.94
2023-02-04T08:56:45.920Z,101590.28
2023-02-04T08:59:14.900Z,101593.19
2023-02-04T09:01:42.587Z,101592.84
2023-02-04T09:04:10.219Z,101588.22
2023-02-04T09:06:38.149Z,101587.69
2023-02-04T09:09:05.758Z,101586.78
2023-02-04T09:11:33.354Z,101589.00
2023-02-04T09:14:00.939Z,101586.34
2023-02-04T09:16:30.255Z,101589.09
2023-02-04T09:18:58.943Z,101592.06
2023-02-04T09:21:27.066Z,101601.53
2023-02-04T09:23:54.738Z,101606.06
2023-02-04T09:26:22.579Z,101613.16
2023-02-04T09:28:50.108Z,101606.59
2023-02-04T09:31:17.831Z,101604.59
2023-02-04T09:33:47.044Z,101610.19
2023-02-04T09:36:14.625Z,101602.06
2023-02-04T09:38:42.244Z,101608.06
2023-02-04T09:41:13.243Z,101611.25
2023-02-04T09:43:44.611Z,101616.47
2023-02-04T09:46:21.075Z,101625.03
2023-02-04T09:48:51.136Z,101621.66
2023-02-04T09:51:21.680Z,101638.75
2023-02-04T09:53:50.991Z,101642.38
2023-02-04T09:56:19.232Z,101634.69
2023-02-04T09:58:46.995Z,101634.75
2023-02-04T10:01:16.921Z,101637.00
2023-02-04T10:03:47.492Z,101639.03
2023-02-04T10:06:18.375Z,101638.19
2023-02-04T10:08:47.527Z,101644.91
2023-02-04T10:11:16.313Z,101639.59
2023-02-04T10:13:47.740Z,101654.09
2023-02-04T10:16:18.028Z,101647.13
2023-02-04T10:18:46.162Z,101650.06
2023-02-04T10:21:18.705Z,101655.44
2023-02-04T10:23:49.763Z,101648.41
2023-02-04T10:26:18.354Z,101655.56
2023-02-04T10:28:47.111Z,101659.19
2023-02-04T10:31:33.870Z,101659.56
2023-02-04T10:34:23.699Z,101665.56
2023-02-04T10:36:55.350Z,101661.72
2023-02-04T10:39:24.217Z,101661.56
2023-02-04T10:41:53.416Z,101672.97
2023-02-04T10:44:27.777Z,101671.75
2023-02-04T10:47:00.748Z,101672.78
2023-02-04T10:49:28.428Z,101675.38
2023-02-04T10:51:57.942Z,101675.28
2023-02-04T10:54:30.585Z,101665.06
2023-02-04T10:56:59.728Z,101660.38
2023-02-04T10:59:29.095Z,101667.00
2023-02-04T11:01:58.566Z,101670.78
2023-02-04T11:04:27.133Z,101663.63
2023-02-04T11:06:55.314Z,101662.03
2023-02-04T11:09:24.318Z,101662.03
2023-02-04T11:11:52.646Z,101663.13
2023-02-04T11:14:25.745Z,101662.63
2023-02-04T11:16:54.647Z,101658.47
2023-02-04T11:19:34.254Z,101660.88
2023-02-04T11:22:21.531Z,101658.44
2023-02-04T11:24:51.022Z,101652.97
2023-02-04T11:27:25.018Z,101653.25
2023-02-04T11:29:53.306Z,101654.56
2023-02-04T11:32:37.781Z,101647.13
2023-02-04T11:35:28.642Z,101652.31
2023-02-04T11:37:56.830Z,101657.44
2023-02-04T11:40:29.785Z,101659.25
2023-02-04T11:43:22.453Z,101655.78
2023-02-04T11:45:50.117Z,101658.28
2023-02-04T11:48:20.755Z,101652.78
2023-02-04T11:50:56.613Z,101650.50
2023-02-04T11:53:26.453Z,101642.00
2023-02-04T11:55:55.391Z,101650.94
2023-02-04T11:58:25.959Z,101642.59
2023-02-04T12:00:54.291Z,101647.47
2023-02-04T12:03:25.016Z,101638.44
2023-02-04T12:05:54.853Z,101654.16
2023-02-04T12:08:28.469Z,101642.91
2023-02-04T12:11:05.630Z,101649.78
2023-02-04T12:13:33.742Z,101649.72
2023-02-04T12:16:03.026Z,101653.50
2023-02-04T12:18:31.806Z,101642.44
2023-02-04T12:21:00.716Z,101654.94
2023-02-04T12:23:30.038Z,101644.56
2023-02-04T12:25:58.338Z,101647.22
2023-02-04T12:28:28.970Z,101643.50
2023-02-04T12:30:56.843Z,101647.66
2023-02-04T12:33:24.461Z,101636.97
2023-02-04T12:35:52.104Z,101635.78
2023-02-04T12:38:20.673Z,101637.19
2023-02-04T12:40:48.472Z,101643.81
2023-02-04T12:43:16.110Z,101638.25
2023-02-04T12:45:46.268Z,101640.66
2023-02-04T12:48:15.050Z,101643.91
2023-02-04T12:50:45.126Z,101640.53
2023-02-04T12:53:12.930Z,101643.16
2023-02-04T12:55:40.525Z,101647.66
2023-02-04T12:58:08.070Z,101644.06
2023-02-04T13:00:35.644Z,101651.22
2023-02-04T13:03:05.217Z,101644.81
2023-02-04T13:05:33.199Z,101645.00
2023-02-04T13:08:00.997Z,101652.34
2023-02-04T13:10:28.711Z,101660.34
2023-02-04T13:12:56.386Z,101666.00
2023-02-04T13:15:24.786Z,101661.25
2023-02-04T13:17:52.388Z,101657.81
2023-02-04T13:20:21.654Z,101653.59
2023-02-04T13:22:49.492Z,101657.81
2023-02-04T13:25:17.158Z,101655.66
2023-02-04T13:27:44.783Z,101652.47
2023-02-04T13:30:15.158Z,101647.28
2023-02-04T13:32:43.496Z,101643.25
2023-02-04T13:35:11.193Z,101642.75
2023-02-04T13:37:40.203Z,101637.50
2023-02-04T13:40:09.432Z,101643.06
2023-02-04T13:42:37.000Z,101635.97
2023-02-04T13:45:04.950Z,101632.50
2023-02-04T13:47:32.561Z,101636.38
2023-02-04T13:50:00.224Z,101646.94
2023-02-04T13:52:27.766Z,101644.03
2023-02-04T13:54:56.882Z,101650.19
2023-02-04T13:57:24.436Z,101656.84
2023-02-04T13:59:52.074Z,101659.41
2023-02-04T14:02:21.180Z,101665.03
2023-02-04T14:04:48.788Z,101661.84
2023-02-04T14:07:16.336Z,101663.59
2023-02-04T14:09:43.898Z,101655.66
2023-02-04T14:12:13.216Z,101657.78
2023-02-04T14:14:40.833Z,101653.34
2023-02-04T14:17:08.372Z,101653.72
2023-02-04T14:19:35.961Z,101659.50
2023-02-04T14:22:03.843Z,101659.25
2023-02-04T14:24:32.251Z,101668.19
2023-02-04T14:27:01.159Z,101672.72
2023-02-04T14:29:30.256Z,101664.22
2023-02-04T14:31:57.929Z,101663.41
2023-02-04T14:34:25.511Z,101660.72
2023-02-04T14:36:53.053Z,101654.31
2023-02-04T14:39:20.685Z,101664.78
2023-02-04T14:41:48.251Z,101660.69
2023-02-04T14:44:20.422Z,101659.41
2023-02-04T14:46:49.765Z,101661.25
2023-02-04T14:49:18.274Z,101662.72
2023-02-04T14:51:45.869Z,101664.63
2023-02-04T14:54:13.673Z,101665.47
2023-02-04T14:56:41.357Z,101665.19
2023-02-04T14:59:08.983Z,101670.38
2023-02-04T15:01:36.737Z,101666.66
2023-02-04T15:04:05.818Z,101667.09
2023-02-04T15:06:33.355Z,101671.03
2023-02-04T15:09:00.921Z,101672.16
2023-02-04T15:11:28.481Z,101669.06
2023-02-04T15:13:56.032Z,101671.38
2023-02-04T15:16:23.977Z,101667.91
2023-02-04T15:18:51.875Z,101673.72
2023-02-04T15:21:21.061Z,101684.28
2023-02-04T15:23:48.723Z,101673.06
2023-02-04T15:26:16.395Z,101673.81
2023-02-04T15:28:43.974Z,101668.34
2023-02-04T15:31:12.247Z,101679.19
2023-02-04T15:33:40.824Z,101669.78
2023-02-04T15:36:08.931Z,101670.50
2023-02-04T15:38:37.918Z,101676.06
2023-02-04T15:41:05.907Z,101676.88
2023-02-04T15:43:33.492Z,101677.63
2023-02-04T15:46:01.132Z,101677.78
2023-02-04T15:48:29.165Z,101690.00
2023-02-04T15:50:56.773Z,101683.06
2023-02-04T15:53:24.723Z,101685.81
2023-02-04T15:55:53.758Z,101688.91
2023-02-04T15:58:21.344Z,101689.97
2023-02-04T16:00:48.922Z,101695.72
2023-02-04T16:03:16.570Z,101700.50
2023-02-04T16:05:44.159Z,101701.81
2023-02-04T16:08:11.872Z,101706.06
2023-02-04T16:10:39.498Z,101705.00
2023-02-04T16:13:08.736Z,101707.47
2023-02-04T16:15:37.204Z,101715.28
2023-02-04T16:18:05.035Z,101722.19
2023-02-04T16:20:32.890Z,101727.91
2023-02-04T16:23:02.152Z,101735.69
2023-02-04T16:25:29.733Z,101734.03
2023-02-04T16:27:57.324Z,101726.91
2023-02-04T16:30:26.368Z,101731.78
2023-02-04T16:32:54.047Z,101737.56
2023-02-04T16:35:21.722Z,101737.41
2023-02-04T16:40:18.132Z,101734.59
2023-02-04T16:42:45.724Z,101747.50
2023-02-04T16:45:13.489Z,101742.47
2023-02-04T16:47:42.517Z,101743.22
2023-02-04T16:50:11.488Z,101748.75
2023-02-04T16:52:38.991Z,101756.84
2023-02-04T16:55:07.141Z,101748.56
2023-02-04T16:57:34.689Z,101750.25
2023-02-04T17:00:02.309Z,101758.53
2023-02-04T17:02:29.962Z,101765.00
2023-02-04T17:04:58.946Z,101768.56
2023-02-04T17:07:26.485Z,101759.91
2023-02-04T17:09:54.020Z,101768.09
2023-02-04T17:12:21.587Z,101771.41
2023-02-04T17:14:49.199Z,101768.28
2023-02-04T17:17:18.173Z,101765.09
2023-02-04T17:19:45.867Z,101764.06
2023-02-04T17:22:15.064Z,101767.31
2023-02-04T17:24:43.668Z,101771.94
2023-02-04T17:27:11.801Z,101773.56
2023-02-04T17:29:39.651Z,101774.50
2023-02-04T17:32:08.598Z,101780.44
2023-02-04T17:34:36.156Z,101771.22
2023-02-04T17:37:03.761Z,101768.94
2023-02-04T17:39:32.685Z,101771.41
2023-02-04T17:42:00.223Z,101766.75
2023-02-04T17:44:28.464Z,101764.38
2023-02-04T17:46:57.368Z,101771.75
2023-02-04T17:49:25.116Z,101768.97
2023-02-04T17:51:52.669Z,101768.56
2023-02-04T17:54:20.308Z,101772.09
2023-02-04T17:56:49.286Z,101767.78
2023-02-04T17:59:16.889Z,101774.81
2023-02-04T18:01:44.817Z,101776.06
2023-02-04T18:04:13.685Z,101780.88
2023-02-04T18:06:41.890Z,101787.22
2023-02-04T18:09:16.048Z,101787.22
2023-02-04T18:11:44.241Z,101791.03
2023-02-04T18:14:16.758Z,101795.16
2023-02-04T18:16:45.908Z,101796.34
2023-02-04T18:19:21.112Z,101792.09
2023-02-04T18:21:51.146Z,101786.16
2023-02-04T18:24:21.807Z,101789.34
2023-02-04T18:26:51.641Z,101784.09
2023-02-04T18:29:31.340Z,101791.78
2023-02-04T18:32:01.714Z,101787.66
2023-02-04T18:34:36.088Z,101786.75
2023-02-04T18:37:23.239Z,101787.75
2023-02-04T18:39:51.103Z,101792.91
2023-02-04T18:42:25.631Z,101798.56
2023-02-04T18:44:56.703Z,101797.19
2023-02-04T18:47:32.467Z,101796.16
2023-02-04T18:50:01.681Z,101795.47
2023-02-04T18:52:37.215Z,101804.63
2023-02-04T18:55:19.332Z,101808.66
2023-02-04T18:57:46.967Z,101806.50
2023-02-04T19:00:32.698Z,101801.41
2023-02-04T19:03:05.359Z,101804.72
2023-02-04T19:05:38.149Z,101810.66
2023-02-04T19:08:23.583Z,101820.34
2023-02-04T19:10:52.800Z,101826.16
2023-02-04T19:13:23.135Z,101819.56
2023-02-04T19:15:57.630Z,101819.38
2023-02-04T19:18:28.096Z,101813.31
2023-02-04T19:20:56.004Z,101822.13
2023-02-04T19:23:25.471Z,101819.56
2023-02-04T19:25:53.771Z,101827.75
2023-02-04T19:28:28.997Z,101816.03
2023-02-04T19:31:00.685Z,101822.84
2023-02-04T19:33:33.817Z,101818.06
2023-02-04T19:36:37.556Z,101827.84
2023-02-04T19:39:17.539Z,101824.75
2023-02-04T19:41:49.193Z,101829.00
2023-02-04T19:44:37.831Z,101825.34
2023-02-04T19:47:37.083Z,101818.22
2023-02-04T19:50:22.796Z,101815.72
2023-02-04T19:52:52.806Z,101818.22
2023-02-04T19:55:29.844Z,101816.97
2023-02-04T19:58:00.566Z,101817.91
2023-02-04T20:00:46.513Z,101804.94
2023-02-04T20:03:25.685Z,101803.84
2023-02-04T20:05:53.739Z,101814.31
2023-02-04T20:08:45.184Z,101813.75
2023-02-04T20:11:35.609Z,101819.00
2023-02-04T20:14:22.130Z,101815.75
2023-02-04T20:16:52.672Z,101814.47
2023-02-04T20:19:26.635Z,101826.94
2023-02-04T20:22:05.398Z,101823.69
2023-02-04T20:24:36.181Z,101819.94
2023-02-04T20:27:11.977Z,101819.81
2023-02-04T20:29:39.571Z,101812.47
2023-02-04T20:32:18.233Z,101817.78
2023-02-04T20:34:47.280Z,101816.84
2023-02-04T20:37:23.508Z,101825.00
2023-02-04T20:39:51.068Z,101824.00
2023-02-04T20:42:35.175Z,101827.69
2023-02-04T20:45:22.059Z,101830.78
2023-02-04T20:47:53.007Z,101840.53
2023-02-04T20:50:41.352Z,101846.81
2023-02-04T20:53:32.966Z,101854.03
2023-02-04T20:56:04.637Z,101851.81
2023-02-04T20:58:37.826Z,101850.94
2023-02-04T21:01:20.485Z,101859.06
2023-02-04T21:03:50.257Z,101859.31
2023-02-04T21:06:27.623Z,101855.91
2023-02-04T21:08:57.618Z,101852.88
2023-02-04T21:11:25.692Z,101846.69
2023-02-04T21:13:55.019Z,101857.84
2023-02-04T21:16:22.925Z,101853.94
2023-02-04T21:18:50.785Z,101859.09
2023-02-04T21:21:20.315Z,101860.22
2023-02-04T21:23:49.633Z,101861.38
2023-02-04T21:26:17.361Z,101859.53
2023-02-04T21:28:45.341Z,101859.75
2023-02-04T21:31:13.164Z,101864.88
2023-02-04T21:33:40.891Z,101864.03
2023-02-04T21:36:09.670Z,101857.09
2023-02-04T21:38:37.618Z,101859.41
2023-02-04T21:41:06.775Z,101863.88
2023-02-04T21:43:34.339Z,101864.06
2023-02-04T21:46:01.957Z,101859.09
2023-02-04T21:48:29.616Z,101861.47
2023-02-04T21:50:57.468Z,101857.50
2023-02-04T21:53:25.241Z,101855.69
2023-02-04T21:55:52.818Z,101854.88
2023-02-04T21:58:21.802Z,101855.94
2023-02-04T22:00:49.382Z,101858.75
2023-02-04T22:03:17.431Z,101863.91
2023-02-04T22:05:45.664Z,101864.16
2023-02-04T22:08:13.461Z,101851.44
2023-02-04T22:10:41.094Z,101855.09
2023-02-04T22:13:26.446Z,101849.75
2023-02-04T22:15:55.487Z,101855.44
2023-02-04T22:18:23.199Z,101848.53
2023-02-04T22:20:50.968Z,101851.75
2023-02-04T22:23:18.566Z,101857.88
2023-02-04T22:25:46.161Z,101853.69
2023-02-04T22:28:14.100Z,101851.38
2023-02-04T22:30:41.678Z,101854.53
2023-02-04T22:33:11.668Z,101851.72
2023-02-04T22:35:39.219Z,101854.44
2023-02-04T22:38:06.846Z,101850.22
2023-02-04T22:40:34.527Z,101843.34
2023-02-04T22:43:02.102Z,101835.56
2023-02-04T22:45:29.660Z,101828.81
2023-02-04T22:47:57.274Z,101828.78
2023-02-04T22:50:26.273Z,101835.03
2023-02-04T22:52:54.003Z,101840.72
2023-02-04T22:55:21.552Z,101837.44
2023-02-04T22:57:49.131Z,101848.34
2023-02-04T23:00:17.276Z,101850.06
2023-02-04T23:02:45.053Z,101860.53
2023-02-04T23:05:12.636Z,101857.91
2023-02-04T23:07:41.578Z,101850.00
2023-02-04T23:10:09.599Z,101850.72
2023-02-04T23:12:37.250Z,101855.25
2023-02-04T23:15:05.232Z,101853.78
2023-02-04T23:17:32.881Z,101858.16
2023-02-04T23:20:00.550Z,101864.53
2023-02-04T23:22:28.312Z,101852.66
2023-02-04T23:24:57.314Z,101856.78
2023-02-04T23:27:25.353Z,101859.44
2023-02-04T23:29:52.945Z,101859.22
2023-02-04T23:32:20.566Z,101868.38
2023-02-04T23:34:48.197Z,101872.53
2023-02-04T23:37:15.853Z,101867.44
2023-02-04T23:39:43.403Z,101871.81
2023-02-04T23:42:12.595Z,101875.53
2023-02-04T23:44:40.197Z,101873.94
2023-02-04T23:47:08.175Z,101871.59
2023-02-04T23:49:35.689Z,101867.28
2023-02-04T23:52:03.572Z,101869.78
2023-02-04T23:54:31.199Z,101864.72
2023-02-04T23:56:58.810Z,101864.56
2023-02-04T23:59:28.008Z,101865.75
